Time;durP1;ratioP1;P1;durP2;ratioP2;P2;SDS_P1;SDS_P2;PMS_P1;PMS_P2;Temp;Humidity;BMP_temperature;BMP_pressure;BME280_temperature;BME280_humidity;BME280_pressure;Samples;Min_cycle;Max_cycle;Signal;HPM_P1;HPM_P2
2022/03/17 00:02:23;;;;;;;15.00;10.20;;;;;;;8.50;nan;95670.59;5144194;27;20579;-70
2022/03/17 00:04:50;;;;;;;15.07;11.07;;;;;;;8.66;nan;95674.53;5144325;27;20207;-69
2022/03/17 00:07:17;;;;;;;13.48;10.13;;;;;;;8.70;nan;95665.19;5142533;27;20286;-70
2022/03/17 00:09:44;;;;;;;14.32;10.95;;;;;;;8.76;nan;95668.47;5143972;27;20294;-70
2022/03/17 00:12:13;;;;;;;12.40;10.80;;;;;;;8.81;nan;95666.69;5144900;27;20196;-70
2022/03/17 00:14:40;;;;;;;12.98;10.63;;;;;;;8.83;nan;95661.59;5142122;27;20604;-71
2022/03/17 00:17:08;;;;;;;18.83;10.32;;;;;;;8.87;nan;95668.28;5141171;27;20210;-71
2022/03/17 00:19:36;;;;;;;16.65;11.52;;;;;;;8.76;nan;95663.41;5142222;27;20203;-70
2022/03/17 00:22:08;;;;;;;11.57;10.38;;;;;;;8.79;nan;95670.94;5142293;27;20210;-70
2022/03/17 00:24:36;;;;;;;14.95;12.13;;;;;;;8.71;nan;95644.88;5143713;27;20195;-70
2022/03/17 00:27:05;;;;;;;13.63;11.07;;;;;;;8.91;nan;95666.53;5143400;27;20309;-72
2022/03/17 00:29:34;;;;;;;14.98;11.23;;;;;;;8.94;nan;95663.94;5141341;27;20207;-70
2022/03/17 00:32:00;;;;;;;15.25;11.75;;;;;;;8.91;nan;95666.53;5142434;27;20825;-70
2022/03/17 00:34:27;;;;;;;12.98;10.10;;;;;;;8.84;nan;95661.56;5144520;27;21171;-70
2022/03/17 00:36:54;;;;;;;13.80;11.27;;;;;;;8.70;nan;95660.97;5141702;27;20239;-69
2022/03/17 00:39:21;;;;;;;13.85;11.07;;;;;;;8.59;nan;95662.84;5142478;27;20199;-69
2022/03/17 00:41:48;;;;;;;15.55;11.52;;;;;;;8.33;nan;95667.47;5144202;27;20303;-70
2022/03/17 00:44:16;;;;;;;13.32;10.68;;;;;;;8.46;nan;95672.31;5143160;27;20227;-69
2022/03/17 00:46:44;;;;;;;17.35;12.23;;;;;;;8.24;nan;95680.25;5143748;27;20226;-70
2022/03/17 00:49:12;;;;;;;19.25;11.80;;;;;;;8.33;nan;95682.69;5144060;27;20196;-70
2022/03/17 00:51:40;;;;;;;21.15;12.63;;;;;;;8.28;nan;95681.88;5143358;27;20206;-71
2022/03/17 00:54:06;;;;;;;13.02;10.43;;;;;;;8.30;nan;95697.88;5144214;27;20327;-70
2022/03/17 00:56:33;;;;;;;16.23;11.48;;;;;;;7.84;nan;95703.56;5143895;27;20224;-69
2022/03/17 00:59:00;;;;;;;18.08;12.15;;;;;;;7.71;nan;95699.50;5144121;27;20215;-70
2022/03/17 01:01:27;;;;;;;18.40;11.90;;;;;;;7.71;nan;95705.41;5145016;27;20292;-69
2022/03/17 01:03:55;;;;;;;15.05;10.07;;;;;;;7.79;nan;95712.91;5144386;27;20205;-69
2022/03/17 01:06:21;;;;;;;13.80;10.18;;;;;;;7.79;nan;95707.84;5144890;27;20286;-69
2022/03/17 01:08:48;;;;;;;16.20;9.73;;;;;;;7.48;nan;95710.75;5145803;27;20280;-70
2022/03/17 01:11:15;;;;;;;11.80;9.40;;;;;;;7.29;nan;95716.84;5144059;27;20821;-69
2022/03/17 01:13:42;;;;;;;11.02;8.35;;;;;;;7.46;nan;95712.44;5145542;27;20276;-70
2022/03/17 01:16:09;;;;;;;6.80;6.15;;;;;;;7.40;nan;95714.22;5141325;27;20203;-70
2022/03/17 01:18:35;;;;;;;6.25;5.65;;;;;;;7.41;nan;95720.97;5145856;27;20238;-70
2022/03/17 01:21:04;;;;;;;8.32;6.20;;;;;;;7.32;nan;95721.88;5142618;27;20241;-70
2022/03/17 01:23:31;;;;;;;5.68;5.28;;;;;;;7.31;nan;95715.16;5143767;27;20242;-70
2022/03/17 01:25:57;;;;;;;5.40;5.03;;;;;;;7.40;nan;95720.13;5144669;27;20886;-69
2022/03/17 01:28:24;;;;;;;6.30;5.15;;;;;;;7.31;nan;95714.31;5144669;27;20222;-69
2022/03/17 01:30:52;;;;;;;5.15;4.35;;;;;;;7.38;nan;95715.94;5142330;27;20203;-70
2022/03/17 01:33:19;;;;;;;6.55;4.60;;;;;;;7.59;nan;95718.22;5142592;27;20207;-69
2022/03/17 01:35:45;;;;;;;5.07;4.30;;;;;;;7.58;nan;95728.34;5144875;27;20677;-70
2022/03/17 01:38:13;;;;;;;3.92;3.65;;;;;;;7.54;nan;95736.81;5142810;27;20231;-69
2022/03/17 01:40:40;;;;;;;3.17;2.92;;;;;;;7.60;nan;95731.69;5143330;27;20278;-70
2022/03/17 01:43:07;;;;;;;3.95;3.65;;;;;;;7.60;nan;95729.19;5142976;27;20195;-70
2022/03/17 01:45:34;;;;;;;3.72;3.33;;;;;;;7.55;nan;95738.50;5144181;27;20274;-70
2022/03/17 01:48:01;;;;;;;3.80;3.50;;;;;;;7.39;nan;95731.09;5144014;27;20190;-70
2022/03/17 01:50:28;;;;;;;4.80;3.90;;;;;;;7.28;nan;95721.94;5144690;27;20262;-70
2022/03/17 01:52:55;;;;;;;3.85;3.45;;;;;;;7.33;nan;95727.78;5142748;27;20721;-70
2022/03/17 01:55:25;;;;;;;3.90;3.60;;;;;;;7.06;nan;95731.41;5144417;27;20283;-69
2022/03/17 01:57:52;;;;;;;4.18;3.85;;;;;;;6.97;nan;95723.91;5143558;27;20198;-69
2022/03/17 02:00:21;;;;;;;4.85;4.45;;;;;;;6.70;nan;95740.97;5143814;27;20231;-70
2022/03/17 02:02:50;;;;;;;4.22;3.90;;;;;;;7.04;nan;95735.63;5142624;27;20198;-70
2022/03/17 02:05:17;;;;;;;4.38;3.97;;;;;;;7.45;nan;95737.75;5143682;27;20342;-70
2022/03/17 02:07:46;;;;;;;4.93;4.53;;;;;;;7.28;nan;95745.53;5145773;27;20199;-70
2022/03/17 02:10:13;;;;;;;5.03;4.60;;;;;;;7.15;nan;95738.91;5144402;27;20199;-70
2022/03/17 02:15:27;;;;;;;5.68;5.00;;;;;;;6.74;nan;95747.69;5145484;27;20241;-69
2022/03/17 02:17:54;;;;;;;6.25;5.35;;;;;;;6.68;nan;95745.19;5143012;27;20201;-70
2022/03/17 02:20:24;;;;;;;5.47;4.97;;;;;;;6.75;nan;95759.47;5143286;27;20219;-70
2022/03/17 02:22:53;;;;;;;5.55;5.03;;;;;;;7.16;nan;95760.81;5144704;27;20200;-71
2022/03/17 02:25:34;;;;;;;6.18;5.70;;;;;;;7.47;nan;95761.34;5143649;27;20293;-70
2022/03/17 02:28:02;;;;;;;4.93;4.53;;;;;;;7.19;nan;95775.94;5143772;27;20206;-70
2022/03/17 02:30:31;;;;;;;4.75;4.43;;;;;;;7.25;nan;95765.78;5143930;27;20202;-70
2022/03/17 02:33:00;;;;;;;7.53;4.45;;;;;;;7.46;nan;95765.56;5142081;27;21667;-70
2022/03/17 02:35:29;;;;;;;5.28;4.88;;;;;;;7.61;nan;95753.63;5143721;27;21088;-70
2022/03/17 02:37:58;;;;;;;5.00;4.60;;;;;;;7.11;nan;95757.50;5142231;27;20259;-70
2022/03/17 02:40:26;;;;;;;5.13;4.72;;;;;;;7.21;nan;95769.16;5143429;27;20911;-71
2022/03/17 02:42:53;;;;;;;4.93;4.53;;;;;;;7.33;nan;95769.06;5144688;27;20210;-71
2022/03/17 02:45:20;;;;;;;6.00;4.95;;;;;;;7.36;nan;95764.00;5143920;27;20199;-70
2022/03/17 02:47:47;;;;;;;5.63;5.20;;;;;;;7.33;nan;95764.00;5146006;27;20291;-70
2022/03/17 02:50:14;;;;;;;6.65;6.15;;;;;;;7.35;nan;95757.25;5146773;27;20740;-71
2022/03/17 02:52:41;;;;;;;6.45;5.85;;;;;;;7.03;nan;95759.25;5149047;27;20255;-70
2022/03/17 02:55:10;;;;;;;7.35;6.65;;;;;;;6.91;nan;95769.47;5148299;27;20200;-70
2022/03/17 02:57:39;;;;;;;5.50;5.03;;;;;;;7.01;nan;95782.00;5146732;27;20206;-70
2022/03/17 03:00:08;;;;;;;4.38;4.07;;;;;;;7.01;nan;95776.09;5146319;27;20219;-70
2022/03/17 03:02:35;;;;;;;4.28;3.88;;;;;;;7.18;nan;95784.38;5146698;27;20251;-71
2022/03/17 03:05:02;;;;;;;4.50;4.10;;;;;;;7.33;nan;95776.66;5145738;27;20664;-71
2022/03/17 03:07:30;;;;;;;4.07;3.78;;;;;;;7.04;nan;95783.66;5148350;27;20743;-70
2022/03/17 03:09:57;;;;;;;4.18;3.88;;;;;;;7.03;nan;95784.50;5145210;27;20996;-71
2022/03/17 03:12:24;;;;;;;3.95;3.65;;;;;;;6.90;nan;95777.88;5146397;27;20734;-70
2022/03/17 03:14:52;;;;;;;3.58;3.28;;;;;;;6.94;nan;95785.41;5146703;27;20206;-70
2022/03/17 03:17:20;;;;;;;3.17;2.95;;;;;;;6.96;nan;95791.28;5146894;27;20297;-70
2022/03/17 03:19:48;;;;;;;3.72;3.45;;;;;;;6.80;nan;95788.06;5147629;27;20195;-70
2022/03/17 03:22:14;;;;;;;4.20;3.90;;;;;;;6.68;nan;95798.22;5145219;27;20725;-69
2022/03/17 03:24:41;;;;;;;4.07;3.80;;;;;;;6.73;nan;95791.47;5148178;27;20213;-70
2022/03/17 03:27:08;;;;;;;4.47;4.18;;;;;;;6.77;nan;95797.34;5144697;27;20954;-70
2022/03/17 03:29:35;;;;;;;4.18;3.78;;;;;;;6.72;nan;95794.00;5145307;27;20283;-70
2022/03/17 03:32:05;;;;;;;4.00;3.70;;;;;;;6.83;nan;95798.16;5145616;27;20241;-70
2022/03/17 03:34:34;;;;;;;4.28;3.90;;;;;;;6.89;nan;95788.84;5147878;27;20195;-70
2022/03/17 03:39:45;;;;;;;5.25;4.82;;;;;;;6.74;nan;95803.25;5145648;27;20214;-70
2022/03/17 03:42:12;;;;;;;4.95;4.55;;;;;;;6.54;nan;95809.28;5144653;27;20292;-70
2022/03/17 03:44:39;;;;;;;4.95;4.55;;;;;;;6.20;nan;95804.41;5145407;27;20267;-70
2022/03/17 03:47:08;;;;;;;4.90;4.50;;;;;;;6.34;nan;95812.75;5145203;27;20195;-70
2022/03/17 03:49:38;;;;;;;7.13;6.45;;;;;;;6.26;nan;95799.34;5145153;27;20195;-70
2022/03/17 03:52:05;;;;;;;6.65;5.95;;;;;;;5.81;nan;95812.97;5143140;27;20583;-70
2022/03/17 03:54:32;;;;;;;7.50;6.78;;;;;;;5.67;nan;95812.16;5143910;27;20263;-70
2022/03/17 03:56:59;;;;;;;7.43;6.80;;;;;;;5.88;nan;95816.31;5145918;27;20726;-70
2022/03/17 03:59:28;;;;;;;8.32;7.50;;;;;;;5.64;nan;95823.09;5146464;27;20214;-70
2022/03/17 04:01:57;;;;;;;9.40;7.82;;;;;;;5.51;nan;95823.94;5145872;27;20218;-69
2022/03/17 04:04:26;;;;;;;9.02;7.82;;;;;;;5.57;nan;95831.50;5145366;27;20233;-69
2022/03/17 04:06:58;;;;;;;8.70;7.80;;;;;;;5.65;nan;95839.06;5144800;27;20577;-70
2022/03/17 04:09:27;;;;;;;10.80;8.33;;;;;;;5.65;nan;95839.91;5144205;27;20187;-69
2022/03/17 04:11:55;;;;;;;9.98;8.77;;;;;;;5.59;nan;95839.91;5145772;27;20203;-71
2022/03/17 04:14:22;;;;;;;9.25;8.18;;;;;;;5.82;nan;95843.22;5144455;27;20320;-71
2022/03/17 04:16:50;;;;;;;11.23;9.20;;;;;;;5.88;nan;95842.38;5144359;27;20199;-70
2022/03/17 04:19:17;;;;;;;11.02;9.45;;;;;;;5.85;nan;95844.91;5145550;27;20581;-70
2022/03/17 04:21:46;;;;;;;9.73;8.73;;;;;;;5.87;nan;95845.72;5144233;27;20282;-70
2022/03/17 04:24:14;;;;;;;9.57;8.70;;;;;;;5.85;nan;95862.56;5144782;27;20203;-70
2022/03/17 04:26:41;;;;;;;9.57;8.63;;;;;;;5.55;nan;95872.69;5143783;27;20199;-71
2022/03/17 04:29:09;;;;;;;8.85;7.95;;;;;;;5.51;nan;95871.84;5145825;27;20202;-70
2022/03/17 04:31:38;;;;;;;9.43;8.50;;;;;;;5.48;nan;95865.13;5143518;27;20357;-70
2022/03/17 04:34:05;;;;;;;10.95;9.35;;;;;;;5.43;nan;95843.31;5144197;27;20193;-70
2022/03/17 04:36:32;;;;;;;9.48;8.50;;;;;;;5.66;nan;95883.63;5144718;27;20191;-72
2022/03/17 04:39:01;;;;;;;10.27;9.18;;;;;;;5.56;nan;95874.38;5144075;27;20207;-70
2022/03/17 04:41:28;;;;;;;10.30;9.20;;;;;;;5.32;nan;95891.19;5144480;27;20315;-70
2022/03/17 04:43:55;;;;;;;11.55;9.35;;;;;;;5.43;nan;95888.69;5144215;27;20207;-71
2022/03/17 04:46:22;;;;;;;9.30;8.32;;;;;;;5.60;nan;95886.97;5144678;27;20230;-71
2022/03/17 04:48:49;;;;;;;10.05;8.85;;;;;;;5.65;nan;95886.97;5142847;27;20203;-71
2022/03/17 04:51:16;;;;;;;10.52;9.10;;;;;;;5.45;nan;95882.78;5147121;27;20677;-71
2022/03/17 04:53:42;;;;;;;10.75;9.27;;;;;;;5.62;nan;95892.03;5143180;27;20204;-71
2022/03/17 04:56:12;;;;;;;9.90;8.35;;;;;;;5.75;nan;95886.94;5144198;27;20956;-71
2022/03/17 04:58:40;;;;;;;10.20;8.27;;;;;;;5.62;nan;95904.63;5145693;27;20229;-71
2022/03/17 05:01:12;;;;;;;9.98;8.95;;;;;;;5.65;nan;95897.91;5143005;27;20635;-71
2022/03/17 05:03:40;;;;;;;10.13;8.55;;;;;;;5.32;nan;95905.47;5144956;27;20272;-71
2022/03/17 05:06:07;;;;;;;11.77;8.02;;;;;;;5.47;nan;95916.38;5144424;27;20203;-71
2022/03/17 05:08:35;;;;;;;9.32;6.93;;;;;;;5.22;nan;95913.88;5145167;27;20654;-71
2022/03/17 05:11:02;;;;;;;8.55;7.75;;;;;;;5.16;nan;95909.69;5146460;27;20195;-70
2022/03/17 05:13:31;;;;;;;9.73;7.70;;;;;;;5.34;nan;95924.81;5144075;27;20194;-71
2022/03/17 05:15:59;;;;;;;8.75;7.85;;;;;;;5.28;nan;95929.84;5144980;27;20787;-71
2022/03/17 05:18:27;;;;;;;7.75;6.93;;;;;;;5.41;nan;95931.53;5144427;27;20238;-71
2022/03/17 05:20:53;;;;;;;9.05;6.93;;;;;;;5.17;nan;95939.09;5143587;27;20255;-71
2022/03/17 05:23:21;;;;;;;8.00;5.65;;;;;;;4.98;nan;95929.78;5144364;27;20707;-71
2022/03/17 05:25:50;;;;;;;8.13;7.35;;;;;;;4.94;nan;95940.72;5145104;27;20230;-71
2022/03/17 05:28:18;;;;;;;6.70;6.13;;;;;;;4.76;nan;95933.94;5143975;27;20234;-72
2022/03/17 05:30:47;;;;;;;7.95;7.22;;;;;;;4.90;nan;95941.56;5145612;27;20259;-71
2022/03/17 05:33:14;;;;;;;12.50;8.45;;;;;;;4.98;nan;95939.88;5057794;27;20655;-71
2022/03/17 05:35:42;;;;;;;9.32;6.78;;;;;;;5.27;nan;95938.22;5054713;27;20317;-70
2022/03/17 05:38:11;;;;;;;6.45;5.82;;;;;;;5.19;nan;95950.00;5053818;27;20230;-70
2022/03/17 05:40:38;;;;;;;8.77;7.07;;;;;;;5.04;nan;95939.88;5046015;27;20292;-71
2022/03/17 05:43:08;;;;;;;7.13;6.43;;;;;;;5.13;nan;95950.00;5055672;27;20274;-71
2022/03/17 05:45:37;;;;;;;7.10;6.40;;;;;;;5.27;nan;95953.34;5046259;27;20710;-71
2022/03/17 05:48:07;;;;;;;8.13;6.90;;;;;;;5.51;nan;95969.34;5045833;27;20199;-71
2022/03/17 05:50:37;;;;;;;10.23;6.47;;;;;;;5.27;nan;95965.97;5053878;27;20227;-69
2022/03/17 05:53:04;;;;;;;8.00;6.47;;;;;;;5.10;nan;95973.50;5055697;27;20218;-70
2022/03/17 05:55:31;;;;;;;10.60;6.32;;;;;;;5.00;nan;95974.31;5057277;27;20202;-70
2022/03/17 05:57:59;;;;;;;6.63;5.80;;;;;;;4.89;nan;95986.03;5049633;27;20298;-69
2022/03/17 06:00:27;;;;;;;6.87;6.17;;;;;;;4.87;nan;95989.38;5050020;27;20195;-70
2022/03/17 06:02:55;;;;;;;7.97;6.10;;;;;;;5.21;nan;95993.66;5052046;27;20577;-70
2022/03/17 06:05:24;;;;;;;5.93;5.27;;;;;;;5.28;nan;95995.34;5057153;27;20202;-70
2022/03/17 06:07:52;;;;;;;6.10;5.43;;;;;;;5.00;nan;95991.09;5057795;27;20227;-71
2022/03/17 06:10:21;;;;;;;7.43;5.57;;;;;;;5.04;nan;95993.63;5057294;27;20263;-71
2022/03/17 06:12:50;;;;;;;6.60;5.90;;;;;;;5.01;nan;95991.09;5058769;27;20214;-72
2022/03/17 06:15:17;;;;;;;8.50;5.88;;;;;;;4.98;nan;95988.56;5048023;27;20288;-70
2022/03/17 06:17:47;;;;;;;6.83;5.97;;;;;;;5.33;nan;95990.34;5051444;27;20290;-70
2022/03/17 06:20:17;;;;;;;6.53;5.90;;;;;;;5.38;nan;95997.06;5055001;27;20226;-70
2022/03/17 06:22:47;;;;;;;6.75;6.00;;;;;;;5.60;nan;95997.09;5060263;27;20288;-70
2022/03/17 06:25:15;;;;;;;5.30;4.80;;;;;;;5.32;nan;96001.25;5048658;27;20273;-70
2022/03/17 06:27:43;;;;;;;7.35;6.57;;;;;;;5.43;nan;96002.97;5048984;27;20206;-70
2022/03/17 06:30:13;;;;;;;8.23;6.60;;;;;;;5.29;nan;96011.31;5050933;27;20210;-71
2022/03/17 06:32:40;;;;;;;11.55;5.60;;;;;;;4.90;nan;96010.41;5056857;27;20238;-71
2022/03/17 06:35:09;;;;;;;8.30;6.38;;;;;;;5.16;nan;96014.66;5046448;27;20293;-71
2022/03/17 06:37:38;;;;;;;6.65;6.05;;;;;;;5.38;nan;96012.19;5064570;27;22401;-71
2022/03/17 06:40:08;;;;;;;6.72;6.00;;;;;;;5.45;nan;96018.91;5061058;27;20207;-71
2022/03/17 06:42:35;;;;;;;6.93;5.28;;;;;;;5.38;nan;96027.31;5046986;27;20277;-71
2022/03/17 06:45:02;;;;;;;6.63;5.45;;;;;;;5.54;nan;96028.19;5057159;27;20203;-71
2022/03/17 06:47:29;;;;;;;6.85;6.18;;;;;;;5.77;nan;96025.66;5053551;27;20249;-71
2022/03/17 06:49:56;;;;;;;6.07;5.47;;;;;;;5.80;nan;96028.19;5047583;27;20550;-71
2022/03/17 06:52:23;;;;;;;6.32;5.72;;;;;;;5.92;nan;96030.75;5052968;27;20249;-70
2022/03/17 06:54:50;;;;;;;5.55;5.05;;;;;;;5.65;nan;96026.50;5057878;27;20198;-70
2022/03/17 06:57:19;;;;;;;5.75;5.25;;;;;;;5.27;nan;96038.19;5060956;27;20214;-70
2022/03/17 06:59:46;;;;;;;5.47;4.97;;;;;;;4.98;nan;96036.44;5057037;27;20593;-69
2022/03/17 07:02:12;;;;;;;5.47;5.05;;;;;;;4.71;nan;96047.22;5051764;27;20234;-71
2022/03/17 07:04:39;;;;;;;5.65;5.05;;;;;;;4.78;nan;96053.16;5056424;27;20222;-70
2022/03/17 07:07:07;;;;;;;6.85;4.93;;;;;;;4.93;nan;96054.91;5059712;27;20199;-70
2022/03/17 07:09:34;;;;;;;5.00;4.07;;;;;;;4.75;nan;96053.97;5052931;27;20211;-70
2022/03/17 07:12:00;;;;;;;6.90;5.55;;;;;;;4.75;nan;96051.44;5058847;27;20191;-70
2022/03/17 07:14:29;;;;;;;5.45;4.95;;;;;;;5.01;nan;96068.34;5054168;27;20202;-70
2022/03/17 07:16:56;;;;;;;6.53;5.80;;;;;;;5.23;nan;96062.53;5048682;27;20226;-70
2022/03/17 07:19:22;;;;;;;8.10;7.30;;;;;;;5.20;nan;96066.75;5056198;27;20334;-70
2022/03/17 07:21:49;;;;;;;7.50;6.78;;;;;;;4.92;nan;96068.34;5053908;27;20233;-70
2022/03/17 07:24:16;;;;;;;8.75;7.82;;;;;;;4.94;nan;96069.19;5052245;27;20239;-72
2022/03/17 07:26:43;;;;;;;7.53;6.70;;;;;;;4.72;nan;96065.69;5068342;27;20633;-70
2022/03/17 07:29:10;;;;;;;8.00;7.27;;;;;;;4.77;nan;96069.94;5057412;27;20705;-71
2022/03/17 07:31:38;;;;;;;7.80;7.20;;;;;;;4.98;nan;96078.41;5085676;27;20322;-71
2022/03/17 07:34:05;;;;;;;7.93;7.13;;;;;;;5.12;nan;96080.16;5146767;27;20187;-70
2022/03/17 07:36:32;;;;;;;7.78;6.95;;;;;;;4.82;nan;96071.63;5144974;27;20244;-70
2022/03/17 07:39:02;;;;;;;8.23;7.43;;;;;;;5.01;nan;96080.94;5145980;27;20247;-70
2022/03/17 07:41:31;;;;;;;7.72;6.63;;;;;;;4.81;nan;96077.50;5144450;27;20194;-70
2022/03/17 07:43:59;;;;;;;10.37;7.83;;;;;;;4.82;nan;96086.75;5145903;27;20666;-70
2022/03/17 07:46:26;;;;;;;9.00;7.63;;;;;;;4.58;nan;96084.94;5145319;27;20195;-70
2022/03/17 07:48:54;;;;;;;9.37;7.97;;;;;;;4.62;nan;96091.69;5146984;27;20658;-69
2022/03/17 07:51:21;;;;;;;10.20;8.37;;;;;;;4.97;nan;96089.31;5144715;27;20297;-70
2022/03/17 07:53:48;;;;;;;11.13;9.70;;;;;;;4.98;nan;96089.34;5144868;27;20581;-70
2022/03/17 07:56:15;;;;;;;10.43;9.33;;;;;;;5.01;nan;96086.00;5146251;27;20209;-70
2022/03/17 07:58:42;;;;;;;9.45;8.52;;;;;;;4.89;nan;96086.78;5145381;27;20255;-70
2022/03/17 08:01:09;;;;;;;12.10;10.07;;;;;;;4.82;nan;96085.06;5143813;27;20188;-70
2022/03/17 08:03:36;;;;;;;12.60;9.45;;;;;;;4.51;nan;96091.59;5143694;27;20215;-70
2022/03/17 08:06:05;;;;;;;11.97;9.73;;;;;;;4.86;nan;96088.44;5146364;27;20199;-70
2022/03/17 08:08:32;;;;;;;12.00;10.27;;;;;;;5.02;nan;96082.63;5143943;27;20612;-70
2022/03/17 08:10:59;;;;;;;13.03;9.90;;;;;;;5.16;nan;96091.09;5146084;27;20211;-70
2022/03/17 08:13:26;;;;;;;13.93;11.18;;;;;;;5.01;nan;96083.47;5141610;27;20872;-71
2022/03/17 08:15:54;;;;;;;15.18;10.50;;;;;;;4.95;nan;96085.97;5145050;27;20203;-71
2022/03/17 08:18:21;;;;;;;13.88;10.40;;;;;;;5.07;nan;96080.97;5146304;27;20685;-70
2022/03/17 08:20:48;;;;;;;11.30;9.30;;;;;;;5.32;nan;96076.88;5145934;27;20280;-70
2022/03/17 08:23:21;;;;;;;15.57;10.30;;;;;;;5.23;nan;96082.72;5145294;27;20337;-69
2022/03/17 08:25:50;;;;;;;11.57;9.03;;;;;;;5.48;nan;96086.97;5143932;27;20331;-69
2022/03/17 08:28:18;;;;;;;9.43;8.52;;;;;;;5.57;nan;96082.81;5145468;27;20330;-69
2022/03/17 08:30:47;;;;;;;10.13;9.03;;;;;;;5.74;nan;96086.19;5144352;27;20723;-70
2022/03/17 08:33:15;;;;;;;9.90;8.10;;;;;;;5.75;nan;96087.88;5080516;27;20247;-70
2022/03/17 08:35:42;;;;;;;8.73;7.90;;;;;;;5.65;nan;96091.25;5068503;27;20227;-70
2022/03/17 08:38:09;;;;;;;10.43;8.40;;;;;;;5.56;nan;96081.13;5076039;27;20202;-70
2022/03/17 08:40:40;;;;;;;10.23;8.50;;;;;;;5.85;nan;96087.06;5082762;27;20232;-70
2022/03/17 08:43:08;;;;;;;9.10;8.20;;;;;;;5.81;nan;96092.94;5089632;27;20699;-71
2022/03/17 08:51:11;;;;;;;13.55;9.00;;;;;;;5.56;nan;96098.78;5086127;27;20227;-72
2022/03/17 08:53:38;;;;;;;11.65;9.00;;;;;;;5.41;nan;96087.00;5081990;27;20205;-71
2022/03/17 08:56:06;;;;;;;12.35;9.43;;;;;;;5.44;nan;96097.91;5081626;27;20633;-70
2022/03/17 08:58:35;;;;;;;11.23;8.60;;;;;;;5.45;nan;96104.63;5082551;27;20310;-70
2022/03/17 09:01:03;;;;;;;10.90;9.57;;;;;;;5.22;nan;96112.94;5076827;27;20671;-70
2022/03/17 09:03:30;;;;;;;10.85;9.13;;;;;;;5.42;nan;96102.13;5070903;27;20730;-70
2022/03/17 09:05:59;;;;;;;15.05;10.27;;;;;;;5.43;nan;96108.00;5073786;27;20665;-70
2022/03/17 09:08:26;;;;;;;9.40;8.38;;;;;;;5.10;nan;96116.28;5081296;27;20754;-71
2022/03/17 09:10:55;;;;;;;10.75;8.90;;;;;;;4.93;nan;96117.88;5065685;27;20207;-70
2022/03/17 09:13:25;;;;;;;8.90;7.97;;;;;;;5.13;nan;96113.78;5073211;27;21771;-70
2022/03/17 09:15:53;;;;;;;9.40;7.80;;;;;;;5.42;nan;96122.28;5067847;27;20292;-70
2022/03/17 09:18:21;;;;;;;8.00;7.20;;;;;;;5.54;nan;96115.56;5058345;27;20258;-69
2022/03/17 09:20:48;;;;;;;8.50;7.63;;;;;;;5.68;nan;96119.00;5064209;27;20206;-69
2022/03/17 09:23:16;;;;;;;8.60;7.70;;;;;;;5.62;nan;96126.53;5062207;27;20230;-69
2022/03/17 09:25:43;;;;;;;8.77;7.57;;;;;;;5.80;nan;96129.09;5055117;27;20207;-70
2022/03/17 09:28:09;;;;;;;8.60;7.67;;;;;;;5.92;nan;96126.63;5068866;27;20200;-70
2022/03/17 09:30:38;;;;;;;8.27;7.47;;;;;;;6.06;nan;96135.06;5072034;27;20338;-70
2022/03/17 09:33:05;;;;;;;8.70;7.80;;;;;;;5.99;nan;96143.44;5135141;27;20230;-70
2022/03/17 09:35:34;;;;;;;8.75;7.85;;;;;;;6.42;nan;96144.34;5144264;27;20199;-70
2022/03/17 09:38:02;;;;;;;7.72;6.97;;;;;;;6.22;nan;96142.63;5142573;27;22633;-70
2022/03/17 09:40:28;;;;;;;12.98;7.63;;;;;;;5.96;nan;96143.44;5143402;27;20836;-70
2022/03/17 09:43:18;;;;;;;7.87;7.13;;;;;;;6.24;nan;96148.50;5143513;27;20259;-70
2022/03/17 09:45:45;;;;;;;8.27;7.45;;;;;;;5.95;nan;96149.31;5141322;27;20286;-70
2022/03/17 09:48:13;;;;;;;8.23;7.50;;;;;;;6.18;nan;96154.44;5142043;27;20198;-69
2022/03/17 09:50:40;;;;;;;9.82;7.88;;;;;;;5.97;nan;96150.16;5141615;27;20301;-69
2022/03/17 09:53:07;;;;;;;9.60;7.43;;;;;;;6.11;nan;96153.56;5142733;27;20268;-71
2022/03/17 09:55:34;;;;;;;9.03;7.63;;;;;;;6.12;nan;96150.22;5146731;27;20207;-69
2022/03/17 09:58:02;;;;;;;8.95;8.05;;;;;;;6.06;nan;96155.25;5147091;27;20203;-69
2022/03/17 10:00:47;;;;;;;11.82;8.07;;;;;;;6.23;nan;96154.41;5147953;27;20287;-70
2022/03/17 10:03:16;;;;;;;6.32;5.53;;;;;;;5.96;nan;96158.56;5146846;27;20743;-69
2022/03/17 10:05:46;;;;;;;5.63;5.23;;;;;;;6.10;nan;96156.94;5148381;27;20689;-72
2022/03/17 10:08:13;;;;;;;6.60;5.95;;;;;;;6.31;nan;96157.78;5147427;27;20199;-69
2022/03/17 10:10:41;;;;;;;5.93;5.43;;;;;;;6.27;nan;96159.47;5148845;27;20199;-71
2022/03/17 10:13:12;;;;;;;6.10;5.70;;;;;;;6.47;nan;96156.94;5148769;27;20206;-72
2022/03/17 10:15:39;;;;;;;5.60;5.20;;;;;;;6.35;nan;96164.53;5146552;27;20298;-70
2022/03/17 10:18:23;;;;;;;4.50;4.15;;;;;;;5.77;nan;96159.34;5150197;27;20230;-69
2022/03/17 10:21:06;;;;;;;5.35;4.93;;;;;;;5.92;nan;96164.47;5148267;27;20206;-71
2022/03/17 10:23:33;;;;;;;5.57;5.10;;;;;;;6.17;nan;96167.03;5148776;27;20234;-71
2022/03/17 10:26:00;;;;;;;5.20;4.80;;;;;;;6.52;nan;96159.47;5146587;27;20230;-71
2022/03/17 10:28:27;;;;;;;5.72;5.30;;;;;;;6.51;nan;96161.16;5154549;27;20203;-72
2022/03/17 10:31:03;;;;;;;6.53;5.93;;;;;;;6.38;nan;96164.53;5156243;27;20677;-72
2022/03/17 10:33:32;;;;;;;6.45;5.82;;;;;;;6.41;nan;96172.09;5156562;27;20666;-72
2022/03/17 10:36:15;;;;;;;6.78;5.75;;;;;;;6.15;nan;96172.09;5156258;27;20192;-70
2022/03/17 10:38:44;;;;;;;5.20;4.85;;;;;;;6.27;nan;96173.75;5156625;27;20275;-70
2022/03/17 10:41:12;;;;;;;5.87;5.23;;;;;;;6.25;nan;96165.34;5157263;27;20251;-70
2022/03/17 10:43:41;;;;;;;6.28;5.75;;;;;;;6.28;nan;96160.31;5155827;27;20223;-70
2022/03/17 10:46:11;;;;;;;6.93;6.25;;;;;;;6.29;nan;96156.94;5157125;27;20583;-70
2022/03/17 10:48:53;;;;;;;6.22;5.63;;;;;;;6.65;nan;96162.00;5156844;27;20671;-71
2022/03/17 10:51:32;;;;;;;6.45;5.45;;;;;;;6.75;nan;96162.81;5156539;27;20263;-71
2022/03/17 10:54:10;;;;;;;5.57;5.00;;;;;;;6.64;nan;96162.84;5156695;27;20188;-70
2022/03/17 10:56:38;;;;;;;7.57;5.38;;;;;;;6.55;nan;96165.34;5156457;27;20188;-72
2022/03/17 10:59:07;;;;;;;5.75;5.25;;;;;;;6.72;nan;96163.66;5156484;27;20220;-71
2022/03/17 11:01:39;;;;;;;5.90;5.40;;;;;;;6.43;nan;96160.31;5155552;27;20193;-70
2022/03/17 11:04:07;;;;;;;6.45;5.95;;;;;;;6.74;nan;96161.13;5155789;27;20271;-72
2022/03/17 11:06:38;;;;;;;5.45;4.95;;;;;;;6.45;nan;96161.13;5155008;27;20248;-72
2022/03/17 11:09:08;;;;;;;5.53;5.13;;;;;;;6.40;nan;96145.19;5156891;27;20199;-71
2022/03/17 11:11:35;;;;;;;5.75;5.15;;;;;;;6.30;nan;96161.16;5156303;27;20195;-71
2022/03/17 11:14:06;;;;;;;5.82;5.32;;;;;;;6.17;nan;96162.00;5156264;27;20204;-71
2022/03/17 11:16:37;;;;;;;5.95;5.45;;;;;;;6.38;nan;96149.38;5156470;27;20239;-70
2022/03/17 11:19:12;;;;;;;7.35;6.75;;;;;;;6.20;nan;96151.88;5156502;27;20254;-71
2022/03/17 11:21:39;;;;;;;6.80;6.13;;;;;;;6.08;nan;96151.03;5155057;27;20187;-70
2022/03/17 11:24:07;;;;;;;7.53;6.13;;;;;;;6.10;nan;96148.53;5156169;27;20223;-71
2022/03/17 11:26:37;;;;;;;7.27;6.57;;;;;;;6.20;nan;96156.91;5155936;27;20236;-70
2022/03/17 11:29:06;;;;;;;6.47;5.90;;;;;;;6.57;nan;96148.53;5155677;27;20227;-70
2022/03/17 11:31:52;;;;;;;7.20;6.50;;;;;;;6.66;nan;96150.22;5155304;27;20271;-70
2022/03/17 11:34:42;;;;;;;7.32;6.57;;;;;;;6.66;nan;96142.63;5155917;27;20192;-70
2022/03/17 11:37:33;;;;;;;7.32;6.18;;;;;;;6.57;nan;96146.00;5155821;27;20232;-71
2022/03/17 11:40:06;;;;;;;6.85;6.15;;;;;;;6.41;nan;96121.59;5155700;27;20194;-72
2022/03/17 11:42:36;;;;;;;8.73;6.55;;;;;;;6.19;nan;96137.59;5155734;27;20244;-72
2022/03/17 11:45:37;;;;;;;6.82;6.03;;;;;;;5.93;nan;96137.56;5154877;27;20292;-71
2022/03/17 11:48:13;;;;;;;9.10;6.63;;;;;;;6.30;nan;96128.34;5156261;27;20187;-71
2022/03/17 11:50:48;;;;;;;7.68;6.82;;;;;;;6.49;nan;96135.03;5156846;27;20247;-72
2022/03/17 11:53:37;;;;;;;8.73;7.47;;;;;;;6.27;nan;96138.41;5155788;27;20692;-72
2022/03/17 11:56:04;;;;;;;8.80;7.60;;;;;;;6.03;nan;96145.13;5155851;27;20200;-71
2022/03/17 11:58:42;;;;;;;9.27;8.38;;;;;;;5.88;nan;96134.16;5156237;27;20223;-71
2022/03/17 12:01:11;;;;;;;10.13;8.30;;;;;;;5.97;nan;96137.56;5156163;27;20184;-71
2022/03/17 12:03:42;;;;;;;10.23;9.07;;;;;;;6.28;nan;96135.91;5155832;27;20724;-71
2022/03/17 12:06:16;;;;;;;16.45;7.95;;;;;;;6.12;nan;96142.63;5155752;27;20187;-71
2022/03/17 12:08:51;;;;;;;7.27;6.57;;;;;;;6.16;nan;96142.66;5154868;27;20220;-71
2022/03/17 12:11:22;;;;;;;7.00;6.32;;;;;;;6.17;nan;96151.91;5155637;27;20198;-71
2022/03/17 12:14:19;;;;;;;10.23;7.40;;;;;;;6.21;nan;96148.50;5156548;27;20184;-72
2022/03/17 12:16:48;;;;;;;11.75;6.90;;;;;;;5.79;nan;96147.59;5149487;27;20194;-72